createdAt,value
2018-05-10T00:01:10.238Z,16.00
2018-05-10T00:03:38.671Z,15.90
2018-05-10T00:06:07.038Z,15.90
2018-05-10T00:08:35.535Z,15.90
2018-05-10T00:11:03.912Z,15.80
2018-05-10T00:13:32.267Z,15.80
2018-05-10T00:16:01.406Z,15.70
2018-05-10T00:18:29.797Z,15.70
2018-05-10T00:20:58.184Z,15.70
2018-05-10T00:23:26.560Z,15.70
2018-05-10T00:25:54.956Z,15.60
2018-05-10T00:28:23.466Z,15.60
2018-05-10T00:30:51.841Z,15.60
2018-05-10T00:33:20.231Z,15.60
2018-05-10T00:35:48.623Z,15.50
2018-05-10T00:38:17.020Z,15.50
2018-05-10T00:40:45.371Z,15.40
2018-05-10T00:43:14.305Z,15.40
2018-05-10T00:45:42.685Z,15.40
2018-05-10T00:48:11.023Z,15.30
2018-05-10T00:50:39.422Z,15.30
2018-05-10T00:53:07.842Z,15.30
2018-05-10T00:55:36.985Z,15.20
2018-05-10T00:58:05.344Z,15.20
2018-05-10T01:00:33.735Z,15.20
2018-05-10T01:03:02.092Z,15.20
2018-05-10T01:05:30.611Z,15.10
2018-05-10T01:07:58.989Z,15.10
2018-05-10T01:10:27.352Z,15.10
2018-05-10T01:12:55.764Z,15.10
2018-05-10T01:15:24.140Z,15.00
2018-05-10T01:17:52.511Z,15.00
2018-05-10T01:20:20.887Z,15.00
2018-05-10T01:22:49.755Z,15.00
2018-05-10T01:25:18.122Z,14.90
2018-05-10T01:27:46.488Z,14.90
2018-05-10T01:30:15.003Z,14.90
2018-05-10T01:32:43.366Z,14.80
2018-05-10T01:35:24.141Z,14.80
2018-05-10T01:37:52.516Z,14.80
2018-05-10T01:40:20.883Z,14.70
2018-05-10T01:42:49.287Z,14.70
2018-05-10T01:45:17.632Z,14.70
2018-05-10T01:47:46.005Z,14.60
2018-05-10T01:50:14.357Z,14.60
2018-05-10T01:52:42.752Z,14.60
2018-05-10T01:55:11.134Z,14.60
2018-05-10T01:57:39.503Z,14.50
2018-05-10T02:00:07.922Z,14.50
2018-05-10T02:02:36.320Z,14.50
2018-05-10T02:05:04.752Z,14.40
2018-05-10T02:07:33.169Z,14.40
2018-05-10T02:10:01.535Z,14.40
2018-05-10T02:12:29.969Z,14.40
2018-05-10T02:14:58.345Z,14.40
2018-05-10T02:17:26.721Z,14.40
2018-05-10T02:19:55.081Z,14.40
2018-05-10T02:22:24.227Z,14.30
2018-05-10T02:24:52.590Z,14.30
2018-05-10T02:27:20.957Z,14.30
2018-05-10T02:29:49.338Z,14.30
2018-05-10T02:32:17.730Z,14.30
2018-05-10T02:34:46.121Z,14.20
2018-05-10T02:37:14.491Z,14.20
2018-05-10T02:39:42.884Z,14.20
2018-05-10T02:42:11.257Z,14.10
2018-05-10T02:44:39.650Z,14.10
2018-05-10T02:47:08.038Z,14.10
2018-05-10T02:49:36.428Z,14.00
2018-05-10T02:52:05.603Z,14.00
2018-05-10T02:54:33.976Z,14.00
2018-05-10T02:57:02.325Z,14.00
2018-05-10T02:59:30.711Z,13.90
2018-05-10T03:01:59.080Z,14.00
2018-05-10T03:04:27.467Z,13.90
2018-05-10T03:06:55.865Z,13.90
2018-05-10T03:09:24.267Z,13.90
2018-05-10T03:11:53.408Z,13.90
2018-05-10T03:14:21.830Z,13.90
2018-05-10T03:16:50.203Z,13.90
2018-05-10T03:19:18.595Z,13.80
2018-05-10T03:21:47.788Z,13.80
2018-05-10T03:24:16.931Z,13.80
2018-05-10T03:26:45.287Z,13.80
2018-05-10T03:29:13.669Z,13.80
2018-05-10T03:31:42.027Z,13.70
2018-05-10T03:34:11.302Z,13.80
2018-05-10T03:36:39.676Z,13.70
2018-05-10T03:39:08.043Z,13.80
2018-05-10T03:41:36.405Z,13.70
2018-05-10T03:44:04.771Z,13.70
2018-05-10T03:46:33.195Z,13.60
2018-05-10T03:49:01.560Z,13.60
2018-05-10T03:51:29.929Z,13.70
2018-05-10T03:53:58.441Z,13.70
2018-05-10T03:56:26.812Z,13.80
2018-05-10T03:58:55.184Z,13.80
2018-05-10T04:01:23.580Z,13.80
2018-05-10T04:07:09.359Z,13.70
2018-05-10T04:09:49.488Z,13.70
2018-05-10T04:12:17.826Z,13.80
2018-05-10T04:14:46.196Z,13.80
2018-05-10T04:17:14.575Z,13.90
2018-05-10T04:19:42.935Z,14.00
2018-05-10T04:22:11.302Z,14.00
2018-05-10T04:24:39.662Z,13.90
2018-05-10T04:27:08.007Z,13.90
2018-05-10T04:29:37.266Z,13.90
2018-05-10T04:32:05.617Z,13.90
2018-05-10T04:34:33.966Z,14.00
2018-05-10T04:37:02.352Z,13.90
2018-05-10T04:39:30.729Z,14.00
2018-05-10T04:41:59.110Z,14.00
2018-05-10T04:44:27.515Z,14.00
2018-05-10T04:46:55.871Z,14.10
2018-05-10T04:49:24.251Z,14.10
2018-05-10T04:51:52.681Z,14.20
2018-05-10T04:54:21.049Z,14.20
2018-05-10T04:56:49.379Z,14.30
2018-05-10T04:59:17.751Z,14.30
2018-05-10T05:01:46.091Z,14.40
2018-05-10T05:04:14.485Z,14.50
2018-05-10T05:06:42.843Z,14.50
2018-05-10T05:09:11.189Z,14.60
2018-05-10T05:11:40.793Z,14.70
2018-05-10T05:14:09.127Z,14.70
2018-05-10T05:16:38.219Z,14.90
2018-05-10T05:19:07.351Z,14.90
2018-05-10T05:21:35.867Z,14.90
2018-05-10T05:24:04.494Z,15.00
2018-05-10T05:26:32.859Z,15.10
2018-05-10T05:29:01.989Z,15.40
2018-05-10T05:31:30.335Z,15.40
2018-05-10T05:33:59.445Z,15.80
2018-05-10T05:36:27.900Z,15.80
2018-05-10T05:38:56.240Z,16.10
2018-05-10T05:41:24.614Z,16.40
2018-05-10T05:43:52.964Z,16.60
2018-05-10T05:46:21.309Z,16.80
2018-05-10T05:48:49.985Z,16.90
2018-05-10T05:51:18.357Z,17.10
2018-05-10T05:53:46.941Z,17.30
2018-05-10T05:56:15.310Z,17.50
2018-05-10T05:58:43.683Z,17.60
2018-05-10T06:01:12.022Z,17.80
2018-05-10T06:03:40.471Z,17.90
2018-05-10T06:06:08.809Z,18.10
2018-05-10T06:08:37.170Z,18.50
2018-05-10T06:11:05.570Z,18.70
2018-05-10T06:13:33.935Z,19.00
2018-05-10T06:16:02.362Z,19.20
2018-05-10T06:18:30.663Z,19.40
2018-05-10T06:20:59.030Z,19.70
2018-05-10T06:23:28.136Z,19.70
2018-05-10T06:25:56.513Z,19.70
2018-05-10T06:28:24.993Z,19.80
2018-05-10T06:30:53.344Z,19.80
2018-05-10T06:33:21.684Z,19.90
2018-05-10T06:35:50.161Z,20.00
2018-05-10T06:38:18.505Z,20.20
2018-05-10T06:40:46.937Z,20.10
2018-05-10T06:43:15.361Z,20.00
2018-05-10T06:45:43.738Z,20.10
2018-05-10T06:48:12.062Z,20.30
2018-05-10T06:50:40.437Z,19.90
2018-05-10T06:53:08.758Z,20.00
2018-05-10T06:55:37.926Z,20.10
2018-05-10T06:58:06.252Z,20.10
2018-05-10T07:00:34.608Z,20.20
2018-05-10T07:03:03.861Z,20.40
2018-05-10T07:05:32.210Z,20.40
2018-05-10T07:08:00.682Z,20.30
2018-05-10T07:10:29.040Z,20.10
2018-05-10T07:12:58.138Z,20.30
2018-05-10T07:15:27.262Z,20.30
2018-05-10T07:17:56.351Z,20.30
2018-05-10T07:20:24.807Z,20.30
2018-05-10T07:22:53.929Z,20.70
2018-05-10T07:25:22.406Z,20.70
2018-05-10T07:27:51.023Z,20.70
2018-05-10T07:30:19.397Z,20.70
2018-05-10T07:32:47.770Z,20.90
2018-05-10T07:35:16.110Z,20.60
2018-05-10T07:37:44.590Z,20.70
2018-05-10T07:40:12.976Z,20.90
2018-05-10T07:42:41.330Z,21.00
2018-05-10T07:45:10.482Z,21.30
2018-05-10T07:47:38.833Z,21.30
2018-05-10T07:50:07.237Z,21.20
2018-05-10T07:52:35.638Z,21.10
2018-05-10T07:55:04.014Z,20.60
2018-05-10T07:57:32.446Z,20.70
2018-05-10T08:00:00.789Z,20.90
2018-05-10T08:02:29.890Z,21.40
2018-05-10T08:04:59.025Z,21.60
2018-05-10T08:07:27.356Z,21.60
2018-05-10T08:09:56.604Z,22.40
2018-05-10T08:12:25.561Z,22.40
2018-05-10T08:14:54.652Z,21.90
2018-05-10T08:17:24.076Z,21.90
2018-05-10T08:19:52.437Z,21.90
2018-05-10T08:22:20.786Z,22.10
2018-05-10T08:24:49.168Z,21.90
2018-05-10T08:27:17.511Z,21.70
2018-05-10T08:29:50.752Z,21.70
2018-05-10T08:32:19.918Z,21.00
2018-05-10T08:34:48.265Z,21.00
2018-05-10T08:37:17.149Z,21.10
2018-05-10T08:39:45.497Z,21.30
2018-05-10T08:42:14.613Z,21.30
2018-05-10T08:44:43.010Z,21.30
2018-05-10T08:47:11.330Z,21.50
2018-05-10T08:49:40.441Z,22.10
2018-05-10T08:52:09.577Z,22.20
2018-05-10T08:54:37.923Z,22.20
2018-05-10T08:57:06.300Z,22.20
2018-05-10T08:59:34.627Z,22.20
2018-05-10T09:02:02.975Z,22.30
2018-05-10T09:04:31.337Z,22.20
2018-05-10T09:06:59.683Z,22.00
2018-05-10T09:09:28.037Z,21.80
2018-05-10T09:11:56.410Z,21.90
2018-05-10T09:14:24.780Z,22.20
2018-05-10T09:16:53.113Z,22.40
2018-05-10T09:19:22.249Z,22.80
2018-05-10T09:21:50.593Z,22.80
2018-05-10T09:24:18.959Z,23.00
2018-05-10T09:26:48.250Z,23.50
2018-05-10T09:29:17.392Z,23.70
2018-05-10T09:31:45.719Z,23.60
2018-05-10T09:34:14.855Z,23.90
2018-05-10T09:36:43.211Z,23.80
2018-05-10T09:39:12.387Z,23.50
2018-05-10T09:41:40.736Z,23.50
2018-05-10T09:44:09.108Z,23.90
2018-05-10T09:46:37.500Z,24.20
2018-05-10T09:49:05.848Z,24.20
2018-05-10T09:51:34.204Z,23.90
2018-05-10T09:54:02.559Z,24.10
2018-05-10T09:56:31.839Z,24.40
2018-05-10T09:59:00.210Z,24.40
2018-05-10T10:01:28.693Z,24.30
2018-05-10T10:03:57.030Z,24.40
2018-05-10T10:06:25.375Z,24.30
2018-05-10T10:08:54.537Z,24.00
2018-05-10T10:11:23.705Z,24.10
2018-05-10T10:13:52.031Z,24.10
2018-05-10T10:16:20.383Z,24.10
2018-05-10T10:18:48.763Z,24.40
2018-05-10T10:21:17.103Z,24.70
2018-05-10T10:23:45.477Z,24.80
2018-05-10T10:26:13.816Z,24.70
2018-05-10T10:28:42.304Z,24.40
2018-05-10T10:31:11.412Z,24.70
2018-05-10T10:33:40.549Z,24.80
2018-05-10T10:36:08.903Z,24.80
2018-05-10T10:38:37.250Z,24.80
2018-05-10T10:41:06.398Z,24.60
2018-05-10T10:43:34.731Z,24.60
2018-05-10T10:46:03.880Z,24.20
2018-05-10T10:48:32.221Z,24.10
2018-05-10T10:51:00.604Z,24.30
2018-05-10T10:53:29.105Z,24.30
2018-05-10T10:55:57.452Z,24.20
2018-05-10T10:58:25.814Z,24.00
2018-05-10T11:00:55.006Z,23.90
2018-05-10T11:03:24.111Z,23.90
2018-05-10T11:05:53.241Z,24.00
2018-05-10T11:08:21.608Z,24.00
2018-05-10T11:10:49.964Z,24.10
2018-05-10T11:13:19.102Z,23.90
2018-05-10T11:15:47.478Z,23.90
2018-05-10T11:18:15.824Z,23.80
2018-05-10T11:20:44.294Z,23.70
2018-05-10T11:23:13.420Z,23.60
2018-05-10T11:25:41.765Z,23.50
2018-05-10T11:28:10.931Z,23.10
2018-05-10T11:30:39.267Z,23.00
2018-05-10T11:33:07.660Z,23.30
2018-05-10T11:35:36.014Z,23.50
2018-05-10T11:38:04.344Z,23.30
2018-05-10T11:40:32.712Z,23.00
2018-05-10T11:43:01.040Z,23.00
2018-05-10T11:45:29.390Z,23.10
2018-05-10T11:47:58.521Z,23.00
2018-05-10T11:50:26.903Z,23.00
2018-05-10T11:52:55.258Z,22.80
2018-05-10T11:55:24.420Z,22.40
2018-05-10T11:57:52.783Z,22.40
2018-05-10T12:00:21.293Z,22.40
2018-05-10T12:02:50.387Z,22.50
2018-05-10T12:05:18.747Z,22.50
2018-05-10T12:07:47.121Z,22.50
2018-05-10T12:10:15.485Z,22.40
2018-05-10T12:12:43.824Z,22.20
2018-05-10T12:15:12.639Z,22.20
2018-05-10T12:17:40.994Z,22.10
2018-05-10T12:20:09.347Z,21.90
2018-05-10T12:22:38.495Z,21.80
2018-05-10T12:25:06.823Z,21.80
2018-05-10T12:27:35.939Z,21.50
2018-05-10T12:30:04.295Z,21.50
2018-05-10T12:32:33.853Z,21.40
2018-05-10T12:35:02.213Z,21.40
2018-05-10T12:37:30.566Z,21.20
2018-05-10T12:39:59.704Z,20.90
2018-05-10T12:42:28.693Z,21.00
2018-05-10T12:44:57.071Z,21.00
2018-05-10T12:47:25.409Z,20.70
2018-05-10T12:49:54.555Z,20.50
2018-05-10T12:52:22.902Z,20.50
2018-05-10T12:54:51.237Z,20.50
2018-05-10T12:57:19.615Z,20.30
2018-05-10T12:59:47.954Z,20.20
2018-05-10T13:02:16.312Z,19.90
2018-05-10T13:04:44.683Z,19.60
2018-05-10T13:07:13.049Z,19.40
2018-05-10T13:09:42.130Z,19.30
2018-05-10T13:12:11.258Z,19.30
2018-05-10T13:14:39.617Z,19.30
2018-05-10T13:17:08.737Z,19.40
2018-05-10T13:19:37.073Z,19.40
2018-05-10T13:22:05.437Z,19.50
2018-05-10T13:24:33.833Z,19.50
2018-05-10T13:27:02.951Z,19.60
2018-05-10T13:29:31.298Z,19.60
2018-05-10T13:31:59.666Z,19.60
2018-05-10T13:34:28.007Z,19.70
2018-05-10T13:36:56.371Z,19.70
2018-05-10T13:39:24.715Z,19.70
2018-05-10T13:41:53.827Z,19.90
2018-05-10T13:44:22.205Z,19.90
2018-05-10T13:46:50.555Z,19.90
2018-05-10T13:49:18.907Z,19.90
2018-05-10T13:51:47.250Z,20.00
2018-05-10T13:54:15.690Z,19.80
2018-05-10T13:56:44.057Z,19.80
2018-05-10T13:59:12.374Z,19.90
2018-05-10T14:01:40.725Z,20.00
2018-05-10T14:04:09.100Z,19.90
2018-05-10T14:06:37.420Z,20.00
2018-05-10T14:09:06.572Z,19.80
2018-05-10T14:11:34.925Z,19.80
2018-05-10T14:14:03.305Z,19.90
2018-05-10T14:16:31.652Z,20.10
2018-05-10T14:19:00.026Z,20.30
2018-05-10T14:21:28.351Z,20.20
2018-05-10T14:23:56.690Z,20.10
2018-05-10T14:26:25.027Z,20.00
2018-05-10T14:28:54.134Z,19.70
2018-05-10T14:31:22.527Z,19.70
2018-05-10T14:33:50.889Z,19.60
2018-05-10T14:36:19.248Z,19.40
2018-05-10T14:38:48.358Z,18.80
2018-05-10T14:41:17.466Z,18.70
2018-05-10T14:43:45.826Z,18.70
2018-05-10T14:46:14.964Z,18.40
2018-05-10T14:48:43.329Z,18.40
2018-05-10T14:51:11.680Z,18.40
2018-05-10T14:53:40.875Z,18.30
2018-05-10T14:56:09.986Z,18.10
2018-05-10T14:58:38.318Z,18.10
2018-05-10T15:01:06.732Z,18.00
2018-05-10T15:03:35.822Z,17.40
2018-05-10T15:06:04.959Z,17.20
2018-05-10T15:08:33.321Z,17.20
2018-05-10T15:11:01.691Z,17.10
2018-05-10T15:13:30.046Z,17.10
2018-05-10T15:15:59.174Z,17.10
2018-05-10T15:18:27.967Z,17.00
2018-05-10T15:20:56.301Z,17.00
2018-05-10T15:23:25.396Z,17.00
2018-05-10T15:25:54.521Z,17.00
2018-05-10T15:28:22.882Z,17.00
2018-05-10T15:30:52.403Z,17.10
2018-05-10T15:33:20.730Z,17.00
2018-05-10T15:35:49.093Z,17.10
2018-05-10T15:38:17.437Z,17.00
2018-05-10T15:40:45.870Z,17.00
2018-05-10T15:43:14.210Z,16.90
2018-05-10T15:45:42.549Z,16.90
2018-05-10T15:48:10.918Z,16.80
2018-05-10T15:50:40.044Z,16.70
2018-05-10T15:53:08.387Z,16.70
2018-05-10T15:55:37.505Z,16.50
2018-05-10T15:58:05.860Z,16.50
2018-05-10T16:00:34.973Z,16.60
2018-05-10T16:03:03.467Z,16.60
2018-05-10T16:05:31.784Z,16.60
2018-05-10T16:08:00.116Z,16.50
2018-05-10T16:10:28.471Z,16.60
2018-05-10T16:12:57.598Z,16.40
2018-05-10T16:15:25.976Z,16.40
2018-05-10T16:17:54.321Z,16.40
2018-05-10T16:20:23.457Z,16.30
2018-05-10T16:22:51.804Z,16.30
2018-05-10T16:25:21.430Z,16.30
2018-05-10T16:27:49.763Z,16.30
2018-05-10T16:30:18.078Z,16.40
2018-05-10T16:32:46.440Z,16.40
2018-05-10T16:35:15.541Z,16.40
2018-05-10T16:37:43.905Z,16.40
2018-05-10T16:40:13.016Z,16.20
2018-05-10T16:42:41.378Z,16.20
2018-05-10T16:45:10.501Z,16.10
2018-05-10T16:47:38.847Z,16.10
2018-05-10T16:50:08.319Z,16.20
2018-05-10T16:52:36.653Z,16.20
2018-05-10T16:55:05.012Z,16.30
2018-05-10T16:57:34.168Z,16.20
2018-05-10T17:00:02.506Z,16.20
2018-05-10T17:02:30.893Z,16.20
2018-05-10T17:04:59.237Z,16.20
2018-05-10T17:07:28.470Z,16.00
2018-05-10T17:09:56.831Z,16.00
2018-05-10T17:12:25.175Z,16.00
2018-05-10T17:14:53.529Z,16.00
2018-05-10T17:17:21.868Z,15.90
2018-05-10T17:19:50.217Z,15.90
2018-05-10T17:22:19.316Z,16.00
2018-05-10T17:24:48.458Z,15.90
2018-05-10T17:27:16.798Z,15.90
2018-05-10T17:29:45.170Z,15.80
2018-05-10T17:32:14.298Z,15.70
2018-05-10T17:34:42.643Z,15.70
2018-05-10T17:37:11.805Z,15.70
2018-05-10T17:39:40.152Z,15.60
2018-05-10T17:42:08.493Z,15.60
2018-05-10T17:44:36.872Z,15.60
2018-05-10T17:47:06.129Z,15.40
2018-05-10T17:49:34.471Z,15.40
2018-05-10T17:52:02.793Z,15.40
2018-05-10T17:54:31.157Z,15.30
2018-05-10T17:56:59.488Z,15.30
2018-05-10T17:59:27.954Z,15.30
2018-05-10T18:01:57.072Z,15.30
2018-05-10T18:04:25.413Z,15.30
2018-05-10T18:06:53.758Z,15.20
2018-05-10T18:09:22.130Z,15.30
2018-05-10T18:11:50.471Z,15.20
2018-05-10T18:14:18.816Z,15.10
2018-05-10T18:16:47.277Z,15.00
2018-05-10T18:19:15.639Z,15.00
2018-05-10T18:21:43.977Z,15.00
2018-05-10T18:24:13.111Z,14.90
2018-05-10T18:26:41.468Z,14.90
2018-05-10T18:29:09.839Z,14.90
2018-05-10T18:31:38.183Z,14.90
2018-05-10T18:34:07.295Z,14.90
2018-05-10T18:36:36.407Z,14.90
2018-05-10T18:39:05.553Z,14.90
2018-05-10T18:41:33.893Z,14.80
2018-05-10T18:44:02.280Z,14.90
2018-05-10T18:46:30.699Z,14.70
2018-05-10T18:48:59.730Z,14.60
2018-05-10T18:51:28.093Z,14.70
2018-05-10T18:53:57.204Z,14.70
2018-05-10T18:56:25.551Z,14.60
2018-05-10T18:58:54.660Z,14.70
2018-05-10T19:01:23.796Z,14.60
2018-05-10T19:03:52.142Z,14.60
2018-05-10T19:06:20.955Z,14.70
2018-05-10T19:08:49.290Z,14.60
2018-05-10T19:11:18.387Z,14.50
2018-05-10T19:13:47.597Z,14.50
2018-05-10T19:16:15.947Z,14.50
2018-05-10T19:18:44.302Z,14.50
2018-05-10T19:21:12.666Z,14.50
2018-05-10T19:23:41.009Z,14.40
2018-05-10T19:26:09.775Z,14.40
2018-05-10T19:28:38.875Z,14.50
2018-05-10T19:31:07.953Z,14.30
2018-05-10T19:33:36.313Z,14.30
2018-05-10T19:36:04.715Z,14.30
2018-05-10T19:38:33.968Z,14.30
2018-05-10T19:41:02.305Z,14.30
2018-05-10T19:43:31.409Z,14.30
2018-05-10T19:45:59.773Z,14.30
2018-05-10T19:48:28.912Z,14.30
2018-05-10T19:50:57.297Z,14.30
2018-05-10T19:53:25.611Z,14.30
2018-05-10T19:55:53.953Z,14.20
2018-05-10T19:58:22.306Z,14.20
2018-05-10T20:00:51.108Z,14.20
2018-05-10T20:03:19.441Z,14.20
2018-05-10T20:05:48.536Z,14.10
2018-05-10T20:08:17.656Z,14.10
2018-05-10T20:10:46.036Z,14.10
2018-05-10T20:13:14.879Z,14.00
2018-05-10T20:15:44.031Z,13.90
2018-05-10T20:18:12.395Z,14.00
2018-05-10T20:20:40.737Z,13.90
2018-05-10T20:23:09.916Z,13.90
2018-05-10T20:25:38.331Z,14.00
2018-05-10T20:28:07.443Z,13.90
2018-05-10T20:30:35.798Z,13.90
2018-05-10T20:33:04.972Z,13.90
2018-05-10T20:35:33.299Z,13.90
2018-05-10T20:38:01.653Z,13.90
2018-05-10T20:40:30.764Z,13.90
2018-05-10T20:42:59.151Z,13.80
2018-05-10T20:45:28.243Z,14.00
2018-05-10T20:47:56.614Z,13.90
2018-05-10T20:50:25.081Z,13.90
2018-05-10T20:52:53.384Z,13.80
2018-05-10T20:55:21.704Z,13.90
2018-05-10T20:57:50.545Z,13.90
2018-05-10T21:00:18.879Z,13.90
2018-05-10T21:02:47.217Z,13.90
2018-05-10T21:05:15.554Z,13.80
2018-05-10T21:07:44.658Z,13.80
2018-05-10T21:10:13.355Z,13.80
2018-05-10T21:12:42.501Z,13.80
2018-05-10T21:15:10.837Z,13.80
2018-05-10T21:17:39.200Z,13.70
2018-05-10T21:20:07.561Z,13.70
2018-05-10T21:22:36.677Z,13.60
2018-05-10T21:25:05.026Z,13.60
2018-05-10T21:27:34.170Z,13.60
2018-05-10T21:30:02.501Z,13.60
2018-05-10T21:32:31.601Z,13.60
2018-05-10T21:35:00.750Z,13.60
2018-05-10T21:37:29.084Z,13.60
2018-05-10T21:39:57.469Z,13.60
2018-05-10T21:42:26.251Z,13.60
2018-05-10T21:44:54.581Z,13.60
2018-05-10T21:47:22.903Z,13.60
2018-05-10T21:50:03.141Z,13.50
2018-05-10T21:52:32.293Z,13.40
2018-05-10T21:55:00.755Z,13.40
2018-05-10T21:57:29.025Z,13.40
2018-05-10T21:59:57.396Z,13.30
2018-05-10T22:02:25.742Z,13.30
2018-05-10T22:04:54.852Z,13.30
2018-05-10T22:07:23.207Z,13.30
2018-05-10T22:09:51.570Z,13.20
2018-05-10T22:12:19.907Z,13.20
2018-05-10T22:14:48.267Z,13.10
2018-05-10T22:17:16.631Z,13.10
2018-05-10T22:19:45.731Z,13.00
2018-05-10T22:22:14.872Z,13.00
2018-05-10T22:24:43.212Z,13.00
2018-05-10T22:27:11.559Z,13.00
2018-05-10T22:29:39.931Z,12.90
2018-05-10T22:32:08.288Z,12.90
2018-05-10T22:34:36.630Z,12.90
2018-05-10T22:37:05.524Z,12.90
2018-05-10T22:39:33.849Z,12.90
2018-05-10T22:42:02.204Z,12.90
2018-05-10T22:44:30.587Z,12.80
2018-05-10T22:46:58.914Z,12.80
2018-05-10T22:49:27.253Z,12.90
2018-05-10T22:51:55.914Z,12.90
2018-05-10T22:54:24.282Z,12.90
2018-05-10T22:56:52.633Z,12.90
2018-05-10T22:59:21.773Z,12.90
2018-05-10T23:01:50.150Z,12.80
2018-05-10T23:04:18.507Z,12.90
2018-05-10T23:06:46.841Z,12.80
2018-05-10T23:09:16.006Z,12.80
2018-05-10T23:11:44.378Z,12.80
2018-05-10T23:14:12.845Z,12.80
2018-05-10T23:16:41.162Z,12.80
2018-05-10T23:19:09.497Z,12.80
2018-05-10T23:21:37.867Z,12.80
2018-05-10T23:24:06.175Z,12.80
2018-05-10T23:26:34.620Z,12.80
2018-05-10T23:29:03.380Z,12.80
2018-05-10T23:31:33.009Z,12.80
2018-05-10T23:34:01.366Z,12.70
2018-05-10T23:36:30.468Z,12.70
2018-05-10T23:38:58.806Z,12.70
2018-05-10T23:41:27.292Z,12.70
2018-05-10T23:43:55.643Z,12.70
2018-05-10T23:46:23.984Z,12.60
2018-05-10T23:48:52.331Z,12.50
2018-05-10T23:51:20.696Z,12.40
2018-05-10T23:53:49.152Z,12.40
2018-05-10T23:56:17.489Z,12.30
2018-05-10T23:58:45.821Z,12.20
